Time;durP1;ratioP1;P1;durP2;ratioP2;P2;SDS_P1;SDS_P2;PMS_P1;PMS_P2;Temp;Humidity;BMP_temperature;BMP_pressure;BME280_temperature;BME280_humidity;BME280_pressure;Samples;Min_cycle;Max_cycle;Signal;HPM_P1;HPM_P2
2023/10/23 00:00:03;;;;;;;2.10;1.70;;;10.70;99.90;;;;;;5012473;28;20168;-74
2023/10/23 00:02:30;;;;;;;3.43;1.77;;;10.60;99.90;;;;;;4995395;28;20256;-74
2023/10/23 00:04:55;;;;;;;5.23;2.33;;;10.60;99.90;;;;;;4995194;28;20420;-76
2023/10/23 00:07:21;;;;;;;3.17;1.90;;;10.50;99.90;;;;;;5012873;28;20482;-74
2023/10/23 00:09:47;;;;;;;3.33;1.83;;;10.50;99.90;;;;;;4995000;28;20302;-73
2023/10/23 00:12:12;;;;;;;2.50;1.90;;;10.60;99.90;;;;;;5012639;28;20633;-74
2023/10/23 00:14:38;;;;;;;3.63;2.17;;;10.70;99.90;;;;;;4994831;28;20223;-73
2023/10/23 00:17:04;;;;;;;2.50;2.10;;;10.60;99.90;;;;;;5012559;28;20175;-73
2023/10/23 00:19:29;;;;;;;3.17;2.13;;;10.60;99.90;;;;;;4994992;28;20190;-73
2023/10/23 00:21:55;;;;;;;4.90;2.00;;;10.50;99.90;;;;;;4994912;28;20357;-73
2023/10/23 00:24:21;;;;;;;4.17;1.70;;;10.40;99.90;;;;;;4994679;28;20178;-73
2023/10/23 00:26:47;;;;;;;1.70;1.50;;;10.40;99.90;;;;;;4994744;28;20613;-72
2023/10/23 00:29:13;;;;;;;2.70;1.73;;;10.40;99.90;;;;;;5012259;28;20426;-73
2023/10/23 00:31:38;;;;;;;3.67;1.67;;;10.40;99.90;;;;;;4978295;28;20173;-73
2023/10/23 00:34:04;;;;;;;4.97;1.87;;;10.40;99.90;;;;;;5012011;28;20238;-72
2023/10/23 00:36:29;;;;;;;2.40;2.00;;;10.40;99.90;;;;;;4994537;28;20690;-74
2023/10/23 00:38:55;;;;;;;2.63;1.80;;;10.40;99.90;;;;;;4977921;28;20197;-73
2023/10/23 00:41:21;;;;;;;5.87;2.47;;;10.40;99.90;;;;;;4994341;28;20171;-73
2023/10/23 00:43:46;;;;;;;3.07;1.80;;;10.40;99.90;;;;;;4994317;28;20164;-73
2023/10/23 00:46:19;;;;;;;3.73;2.00;;;10.40;99.90;;;;;;4994155;28;20646;-73
2023/10/23 00:48:47;;;;;;;3.70;2.23;;;10.40;99.90;;;;;;4994073;28;20314;-73
2023/10/23 00:51:14;;;;;;;3.30;2.47;;;10.40;99.90;;;;;;4994595;28;20512;-73
2023/10/23 00:53:41;;;;;;;4.10;1.70;;;10.40;99.90;;;;;;4994087;28;20464;-72
2023/10/23 00:56:09;;;;;;;5.10;2.20;;;10.30;99.90;;;;;;5012301;28;20582;-72
2023/10/23 00:58:39;;;;;;;3.53;1.87;;;10.20;99.90;;;;;;4998476;28;20469;-72
2023/10/23 01:01:06;;;;;;;4.67;1.97;;;10.10;99.90;;;;;;4966430;28;20879;-73
2023/10/23 01:03:31;;;;;;;2.90;2.13;;;10.10;99.90;;;;;;4998121;28;20416;-72
2023/10/23 01:05:57;;;;;;;4.17;1.93;;;10.20;99.90;;;;;;4981892;28;20414;-73
2023/10/23 01:08:23;;;;;;;4.10;2.13;;;10.20;99.90;;;;;;4997776;28;20208;-73
2023/10/23 01:10:49;;;;;;;8.03;2.90;;;10.20;99.90;;;;;;5015741;28;20410;-73
2023/10/23 01:13:15;;;;;;;5.30;2.20;;;10.20;99.90;;;;;;4998022;28;20937;-74
2023/10/23 01:15:40;;;;;;;4.67;1.90;;;10.20;99.90;;;;;;4998011;28;20239;-73
2023/10/23 01:18:06;;;;;;;2.90;1.63;;;10.20;99.90;;;;;;4997921;28;20236;-73
2023/10/23 01:20:32;;;;;;;3.50;2.17;;;10.20;99.90;;;;;;4997791;28;20173;-73
2023/10/23 01:22:59;;;;;;;3.83;2.23;;;10.20;99.90;;;;;;4998121;28;20169;-73
2023/10/23 01:25:25;;;;;;;5.57;2.10;;;10.20;99.90;;;;;;4997625;28;20415;-73
2023/10/23 01:27:51;;;;;;;3.67;1.97;;;10.20;99.90;;;;;;4997582;28;20435;-72
2023/10/23 01:30:17;;;;;;;4.13;1.53;;;10.10;99.90;;;;;;4998258;28;20754;-73
2023/10/23 01:32:43;;;;;;;4.33;1.90;;;10.10;99.90;;;;;;5015467;28;20413;-73
2023/10/23 01:35:10;;;;;;;6.17;2.13;;;10.10;99.90;;;;;;5015267;28;20858;-73
2023/10/23 01:37:36;;;;;;;4.17;1.83;;;10.00;99.90;;;;;;4998040;28;20197;-74
2023/10/23 01:40:02;;;;;;;2.80;1.70;;;10.00;99.90;;;;;;4998495;28;20421;-72
2023/10/23 01:42:30;;;;;;;2.10;1.40;;;10.00;99.90;;;;;;4997525;28;20179;-72
2023/10/23 01:44:56;;;;;;;2.13;1.73;;;10.00;99.90;;;;;;4997389;28;20918;-72
2023/10/23 01:47:26;;;;;;;4.03;1.70;;;10.00;99.90;;;;;;4997428;28;20416;-72
2023/10/23 01:49:51;;;;;;;1.87;1.57;;;10.00;99.90;;;;;;4997403;28;20410;-72
2023/10/23 01:52:17;;;;;;;4.67;2.17;;;10.00;99.90;;;;;;4997557;28;20911;-72
2023/10/23 01:54:43;;;;;;;3.77;2.10;;;10.10;99.90;;;;;;5014350;28;20270;-72
2023/10/23 01:57:12;;;;;;;3.00;1.83;;;10.10;99.90;;;;;;5014855;28;20415;-72
2023/10/23 01:59:39;;;;;;;3.30;1.67;;;10.10;99.90;;;;;;4981004;28;20208;-72
2023/10/23 02:02:04;;;;;;;3.00;1.87;;;10.10;99.90;;;;;;5015140;28;20457;-71
2023/10/23 02:04:31;;;;;;;4.73;2.27;;;10.10;99.90;;;;;;4965149;28;20420;-73
2023/10/23 02:06:57;;;;;;;4.23;2.13;;;10.10;99.90;;;;;;4996888;28;20180;-73
2023/10/23 02:09:23;;;;;;;5.37;2.10;;;10.00;99.90;;;;;;5053848;23;20580;-71
2023/10/23 02:11:49;;;;;;;2.50;1.70;;;9.90;99.90;;;;;;5018228;28;20441;-71
2023/10/23 02:14:15;;;;;;;2.60;1.43;;;9.90;99.90;;;;;;5035571;28;20617;-70
2023/10/23 02:16:41;;;;;;;2.63;1.80;;;9.90;99.90;;;;;;5017696;28;20419;-70
2023/10/23 02:19:06;;;;;;;3.70;2.03;;;9.90;99.90;;;;;;5017090;28;20191;-70
2023/10/23 02:21:32;;;;;;;3.10;1.80;;;9.90;99.90;;;;;;5017444;28;20424;-70
2023/10/23 02:23:58;;;;;;;6.90;2.07;;;9.90;99.90;;;;;;5035128;28;20178;-72
2023/10/23 02:26:25;;;;;;;2.87;2.20;;;9.80;99.90;;;;;;5017228;28;20248;-70
2023/10/23 02:28:51;;;;;;;2.07;1.40;;;9.80;99.90;;;;;;5017199;28;20588;-70
2023/10/23 02:31:17;;;;;;;3.00;1.70;;;9.70;99.90;;;;;;5017106;28;21000;-71
2023/10/23 02:33:43;;;;;;;1.93;1.70;;;9.70;99.90;;;;;;5017242;28;20176;-71
2023/10/23 02:36:08;;;;;;;3.27;1.60;;;9.70;99.90;;;;;;5016978;28;20762;-71
2023/10/23 02:38:34;;;;;;;6.17;1.70;;;9.70;99.90;;;;;;5017067;28;20564;-71
2023/10/23 02:40:59;;;;;;;3.07;1.57;;;9.60;99.90;;;;;;5017179;28;20186;-71
2023/10/23 02:43:25;;;;;;;2.40;1.90;;;9.60;99.90;;;;;;5017283;28;20163;-72
2023/10/23 02:45:51;;;;;;;4.10;1.77;;;9.60;99.90;;;;;;5016905;28;20167;-71
2023/10/23 02:48:19;;;;;;;2.70;1.90;;;9.70;99.90;;;;;;5016892;28;20645;-72
2023/10/23 02:50:55;;;;;;;4.57;1.77;;;9.70;99.90;;;;;;5016863;28;20176;-71
2023/10/23 02:53:21;;;;;;;4.40;2.00;;;9.70;99.90;;;;;;5016872;28;20420;-72
2023/10/23 02:55:49;;;;;;;2.43;1.80;;;9.60;99.90;;;;;;5016679;28;20430;-72
2023/10/23 02:58:16;;;;;;;4.37;2.00;;;9.60;99.90;;;;;;5016653;28;20460;-72
2023/10/23 03:00:42;;;;;;;2.17;1.50;;;9.50;99.90;;;;;;5034458;28;20398;-72
2023/10/23 03:03:09;;;;;;;2.37;1.77;;;9.50;99.90;;;;;;5017199;28;20915;-72
2023/10/23 03:05:35;;;;;;;3.47;1.37;;;9.50;99.90;;;;;;5034257;28;20514;-72
2023/10/23 03:08:00;;;;;;;2.17;1.40;;;9.50;99.90;;;;;;5016523;28;20445;-72
2023/10/23 03:10:26;;;;;;;2.03;1.30;;;9.40;99.90;;;;;;5016364;28;20214;-72
2023/10/23 03:12:52;;;;;;;1.30;1.07;;;9.40;99.90;;;;;;5016516;28;20183;-72
2023/10/23 03:15:18;;;;;;;7.37;1.60;;;9.50;99.90;;;;;;5016267;28;20224;-72
2023/10/23 03:17:43;;;;;;;4.60;1.70;;;9.50;99.90;;;;;;5016465;28;20779;-72
2023/10/23 03:20:10;;;;;;;2.30;1.37;;;9.40;99.90;;;;;;5015959;28;20199;-70
2023/10/23 03:22:35;;;;;;;6.93;2.40;;;9.50;99.90;;;;;;5016890;28;20173;-70
2023/10/23 03:25:01;;;;;;;2.80;1.63;;;9.40;99.90;;;;;;5016378;28;20425;-70
2023/10/23 03:27:27;;;;;;;2.70;1.90;;;9.40;99.90;;;;;;5016153;28;20178;-70
2023/10/23 03:29:52;;;;;;;4.40;1.53;;;9.40;99.90;;;;;;5016223;28;20194;-70
2023/10/23 03:32:18;;;;;;;2.40;1.80;;;9.40;99.90;;;;;;5016170;28;20646;-70
2023/10/23 03:34:44;;;;;;;4.97;2.17;;;9.30;99.90;;;;;;5016026;28;20195;-70
2023/10/23 03:37:10;;;;;;;2.73;1.80;;;9.20;99.90;;;;;;5016033;28;20174;-70
2023/10/23 03:39:35;;;;;;;5.83;2.27;;;9.20;99.90;;;;;;5016004;28;20487;-70
2023/10/23 03:42:01;;;;;;;6.90;2.30;;;9.30;99.90;;;;;;5015961;28;20169;-70
2023/10/23 03:44:27;;;;;;;2.97;2.20;;;9.30;99.90;;;;;;5016110;28;20176;-70
2023/10/23 03:46:53;;;;;;;3.13;2.20;;;9.30;99.90;;;;;;5016074;28;20424;-70
2023/10/23 03:49:19;;;;;;;3.10;1.60;;;9.30;99.90;;;;;;5015787;28;20196;-70
2023/10/23 03:51:45;;;;;;;2.30;1.50;;;9.20;99.90;;;;;;5015877;28;20420;-70
2023/10/23 03:54:11;;;;;;;3.57;1.50;;;9.20;99.90;;;;;;5015836;28;20205;-70
2023/10/23 03:56:36;;;;;;;4.57;2.00;;;9.10;99.90;;;;;;5015697;28;20661;-70
2023/10/23 03:59:03;;;;;;;2.43;1.67;;;9.10;99.90;;;;;;5015680;28;20520;-70
2023/10/23 04:01:29;;;;;;;2.80;1.83;;;9.10;99.90;;;;;;5015144;28;20665;-70
2023/10/23 04:03:54;;;;;;;1.83;1.53;;;9.20;99.90;;;;;;5015731;28;20459;-70
2023/10/23 04:06:20;;;;;;;2.73;1.73;;;9.10;99.90;;;;;;5033237;28;20475;-70
2023/10/23 04:08:46;;;;;;;3.43;1.87;;;9.10;99.90;;;;;;5015489;28;20682;-70
2023/10/23 04:11:14;;;;;;;4.60;1.77;;;9.00;99.90;;;;;;5015345;28;20259;-70
2023/10/23 04:13:40;;;;;;;3.00;1.93;;;9.00;99.90;;;;;;5014667;28;20662;-71
2023/10/23 04:16:06;;;;;;;3.37;2.30;;;9.00;99.90;;;;;;5032377;28;20476;-70
2023/10/23 04:18:31;;;;;;;3.20;2.23;;;9.00;99.90;;;;;;5014602;28;20183;-70
2023/10/23 04:21:09;;;;;;;4.70;2.00;;;9.00;99.90;;;;;;5032674;28;20200;-71
2023/10/23 04:23:36;;;;;;;3.23;1.80;;;9.00;99.90;;;;;;5015303;28;20605;-70
2023/10/23 04:26:02;;;;;;;4.67;2.60;;;9.00;99.90;;;;;;5015172;28;20414;-70
2023/10/23 04:28:28;;;;;;;4.40;2.03;;;8.90;99.90;;;;;;5015805;28;22475;-70
2023/10/23 04:30:55;;;;;;;3.70;2.20;;;8.90;99.90;;;;;;5016167;28;20182;-70
2023/10/23 04:33:21;;;;;;;4.83;2.37;;;8.90;99.90;;;;;;5021615;28;20182;-71
2023/10/23 04:35:51;;;;;;;3.30;2.20;;;8.90;99.90;;;;;;5015202;28;20478;-72
2023/10/23 04:38:17;;;;;;;4.40;2.37;;;8.80;99.90;;;;;;5006868;28;20422;-72
2023/10/23 04:40:46;;;;;;;3.27;1.97;;;8.80;99.90;;;;;;5011985;28;20428;-72
2023/10/23 04:43:12;;;;;;;4.17;2.50;;;8.80;99.90;;;;;;5021149;28;20190;-70
2023/10/23 04:45:38;;;;;;;5.00;2.97;;;8.80;99.90;;;;;;5019460;28;20418;-70
2023/10/23 04:48:05;;;;;;;3.80;2.47;;;8.80;99.90;;;;;;5015088;28;20177;-70
2023/10/23 04:50:35;;;;;;;3.60;2.50;;;8.90;99.90;;;;;;5015306;28;21031;-70
2023/10/23 04:53:00;;;;;;;6.63;2.60;;;8.90;99.90;;;;;;5014915;28;20425;-70
2023/10/23 04:55:31;;;;;;;4.90;2.63;;;8.80;99.90;;;;;;5015183;28;20459;-70
2023/10/23 04:57:56;;;;;;;5.17;2.70;;;8.80;99.90;;;;;;5033334;28;20239;-70
2023/10/23 05:00:22;;;;;;;4.00;2.53;;;8.70;99.90;;;;;;5032545;28;20508;-70
2023/10/23 05:02:48;;;;;;;4.00;2.87;;;8.70;99.90;;;;;;5014788;28;20264;-70
2023/10/23 05:05:13;;;;;;;5.60;3.27;;;8.60;99.90;;;;;;5014803;28;20209;-70
2023/10/23 05:07:39;;;;;;;3.37;3.07;;;8.70;99.90;;;;;;5014620;28;20178;-70
2023/10/23 05:10:09;;;;;;;3.67;3.17;;;8.70;99.90;;;;;;5014796;28;20214;-70
2023/10/23 05:12:35;;;;;;;3.77;2.43;;;8.70;99.90;;;;;;5014912;28;20229;-70
2023/10/23 05:15:02;;;;;;;3.60;2.73;;;8.70;99.90;;;;;;5014864;28;20451;-70
2023/10/23 05:17:28;;;;;;;3.40;2.93;;;8.70;99.90;;;;;;5014703;28;20202;-70
2023/10/23 05:19:53;;;;;;;7.97;2.40;;;8.70;99.90;;;;;;5014674;28;20433;-70
2023/10/23 05:22:19;;;;;;;6.17;2.77;;;8.60;99.90;;;;;;5014690;28;20209;-71
2023/10/23 05:24:48;;;;;;;4.10;2.30;;;8.60;99.90;;;;;;5014425;28;20178;-70
2023/10/23 05:27:14;;;;;;;4.03;3.10;;;8.60;99.90;;;;;;5014046;28;20230;-70
2023/10/23 05:29:40;;;;;;;4.47;2.93;;;8.70;99.90;;;;;;5011464;28;20425;-70
2023/10/23 05:32:07;;;;;;;4.27;2.60;;;8.60;99.90;;;;;;5014572;28;20440;-70
2023/10/23 05:34:33;;;;;;;4.43;2.10;;;8.60;99.90;;;;;;5013912;28;20484;-70
2023/10/23 05:36:59;;;;;;;2.90;2.33;;;8.60;99.90;;;;;;5014010;28;20823;-70
2023/10/23 05:39:26;;;;;;;5.20;3.10;;;8.50;99.90;;;;;;5014039;28;20429;-70
2023/10/23 05:41:51;;;;;;;4.67;3.10;;;8.50;99.90;;;;;;5013884;28;20453;-70
2023/10/23 05:44:17;;;;;;;4.43;2.90;;;8.50;99.90;;;;;;5017600;28;20489;-70
2023/10/23 05:46:42;;;;;;;3.20;2.87;;;8.60;99.90;;;;;;5017698;28;20170;-70
2023/10/23 05:49:08;;;;;;;6.07;2.90;;;8.50;99.90;;;;;;5017364;28;20209;-70
2023/10/23 05:51:34;;;;;;;6.50;2.77;;;8.60;99.90;;;;;;5017357;28;20185;-70
2023/10/23 05:53:59;;;;;;;4.57;3.27;;;8.60;99.90;;;;;;5017932;28;20173;-70
2023/10/23 05:56:25;;;;;;;4.37;3.30;;;8.60;99.90;;;;;;5017740;28;20206;-70
2023/10/23 05:58:51;;;;;;;3.10;2.30;;;8.60;99.90;;;;;;5035539;28;20195;-68
2023/10/23 06:01:17;;;;;;;7.07;3.50;;;8.60;99.90;;;;;;5017913;28;20179;-69
2023/10/23 06:03:43;;;;;;;5.13;3.77;;;8.60;99.90;;;;;;5017811;28;20167;-69
2023/10/23 06:06:09;;;;;;;8.70;4.33;;;8.70;99.90;;;;;;5017604;28;20750;-69
2023/10/23 06:08:35;;;;;;;7.57;5.13;;;8.70;99.90;;;;;;5035347;28;20434;-69
2023/10/23 06:11:00;;;;;;;4.90;3.27;;;8.70;99.90;;;;;;5017282;28;20424;-70
2023/10/23 06:13:26;;;;;;;3.47;3.03;;;8.70;99.90;;;;;;5017601;28;20225;-69
2023/10/23 06:15:52;;;;;;;5.17;3.00;;;8.70;99.90;;;;;;5035288;28;20196;-70
2023/10/23 06:18:18;;;;;;;7.13;3.53;;;8.70;99.90;;;;;;5016863;28;20221;-70
2023/10/23 06:20:44;;;;;;;4.90;3.03;;;8.70;99.90;;;;;;5014341;28;20225;-70
2023/10/23 06:23:10;;;;;;;3.53;2.57;;;8.70;99.90;;;;;;5017172;28;20299;-70
2023/10/23 06:25:36;;;;;;;6.20;2.70;;;8.80;99.90;;;;;;5017214;28;20941;-70
2023/10/23 06:28:03;;;;;;;3.97;3.57;;;8.70;99.90;;;;;;5034995;28;20197;-70
2023/10/23 06:30:29;;;;;;;6.23;3.73;;;8.70;99.90;;;;;;5016993;28;20292;-70
2023/10/23 06:32:54;;;;;;;9.07;3.73;;;8.80;99.90;;;;;;5016728;28;20838;-70
2023/10/23 06:35:20;;;;;;;4.73;3.03;;;8.80;99.90;;;;;;5033465;28;20448;-70
2023/10/23 06:37:47;;;;;;;5.00;3.50;;;8.80;99.90;;;;;;5033533;28;20255;-71
2023/10/23 06:40:12;;;;;;;4.37;3.43;;;8.80;99.90;;;;;;5017240;28;20193;-70
2023/10/23 06:42:38;;;;;;;8.20;4.80;;;8.90;99.90;;;;;;5016033;28;20405;-70
2023/10/23 06:45:04;;;;;;;7.00;4.07;;;9.00;99.90;;;;;;5015081;28;20206;-71
2023/10/23 06:47:30;;;;;;;3.67;3.30;;;9.10;99.90;;;;;;5016421;28;20205;-71
2023/10/23 06:49:56;;;;;;;7.40;4.70;;;9.10;99.90;;;;;;5034694;28;20421;-71
2023/10/23 06:52:21;;;;;;;4.70;3.80;;;9.20;99.90;;;;;;5016944;28;20200;-71
2023/10/23 06:54:47;;;;;;;8.73;4.33;;;9.20;99.90;;;;;;5033754;28;20191;-71
2023/10/23 06:57:13;;;;;;;3.73;2.83;;;9.30;99.90;;;;;;5016879;28;20596;-72
2023/10/23 06:59:38;;;;;;;6.03;4.03;;;9.40;99.90;;;;;;5016774;28;20246;-70
2023/10/23 07:02:04;;;;;;;5.97;3.97;;;9.50;99.90;;;;;;5016414;28;20199;-70
2023/10/23 07:04:29;;;;;;;3.40;3.10;;;9.60;99.90;;;;;;5016237;28;20609;-70
2023/10/23 07:06:56;;;;;;;8.00;3.97;;;9.80;99.90;;;;;;5016826;28;20168;-71
2023/10/23 07:09:21;;;;;;;4.73;3.67;;;9.90;99.90;;;;;;5016560;28;20704;-70
2023/10/23 07:11:51;;;;;;;5.67;3.83;;;10.00;99.90;;;;;;5016617;28;20407;-70
2023/10/23 07:14:16;;;;;;;7.20;4.17;;;10.10;99.90;;;;;;5016511;28;20266;-70
2023/10/23 07:16:42;;;;;;;7.07;4.70;;;10.20;99.90;;;;;;5016323;28;20841;-70
2023/10/23 07:19:10;;;;;;;7.50;5.20;;;10.20;99.90;;;;;;5034226;28;20268;-70
2023/10/23 07:21:36;;;;;;;5.10;4.20;;;10.30;99.90;;;;;;5016279;28;20868;-70
2023/10/23 07:24:02;;;;;;;4.93;3.70;;;10.40;99.90;;;;;;5016142;28;20448;-70
2023/10/23 07:26:28;;;;;;;5.33;4.20;;;10.60;99.90;;;;;;5016182;28;20302;-70
2023/10/23 07:28:54;;;;;;;6.80;4.93;;;10.70;99.90;;;;;;5016186;28;20866;-70
2023/10/23 07:31:19;;;;;;;4.97;4.40;;;10.80;99.90;;;;;;5016217;28;20269;-70
2023/10/23 07:33:45;;;;;;;5.80;5.07;;;10.90;99.90;;;;;;5016087;28;20176;-70
2023/10/23 07:36:12;;;;;;;5.87;4.80;;;11.00;99.90;;;;;;5016041;28;20385;-70
2023/10/23 07:38:40;;;;;;;5.60;4.60;;;11.10;99.90;;;;;;5015840;28;20193;-70
2023/10/23 07:41:06;;;;;;;11.93;5.00;;;11.20;99.90;;;;;;5015912;28;20418;-70
2023/10/23 07:43:32;;;;;;;9.10;5.73;;;11.20;99.90;;;;;;5016082;28;20410;-70
2023/10/23 07:46:03;;;;;;;7.77;4.67;;;11.20;99.90;;;;;;5033751;28;20225;-70
2023/10/23 07:48:29;;;;;;;5.43;4.80;;;11.20;99.90;;;;;;5015765;28;20530;-70
2023/10/23 07:50:58;;;;;;;6.73;5.50;;;11.40;99.90;;;;;;5015697;28;20418;-70
2023/10/23 07:53:23;;;;;;;10.77;5.77;;;11.50;99.90;;;;;;5015567;28;20415;-70
2023/10/23 07:55:49;;;;;;;8.13;5.00;;;11.50;99.90;;;;;;5015543;28;20461;-70
2023/10/23 07:58:15;;;;;;;6.73;5.83;;;11.70;99.90;;;;;;5015493;28;20173;-70
2023/10/23 08:00:41;;;;;;;6.90;4.87;;;11.70;99.90;;;;;;5033356;28;20174;-70
2023/10/23 08:03:07;;;;;;;6.23;4.33;;;11.30;99.90;;;;;;5014758;28;20399;-70
2023/10/23 08:05:32;;;;;;;5.83;4.77;;;11.10;99.90;;;;;;5015324;28;20175;-70
2023/10/23 08:07:58;;;;;;;7.03;4.83;;;11.30;99.90;;;;;;5015541;28;20224;-70
2023/10/23 08:10:24;;;;;;;6.17;5.03;;;11.60;99.90;;;;;;5029666;23;20684;-74
2023/10/23 08:12:49;;;;;;;13.20;5.17;;;11.70;99.90;;;;;;5014854;28;20166;-73
2023/10/23 08:15:15;;;;;;;5.50;5.00;;;11.90;99.90;;;;;;5014428;28;20290;-74
2023/10/23 08:17:41;;;;;;;9.57;6.10;;;12.00;99.90;;;;;;5014409;28;20174;-74
2023/10/23 08:20:07;;;;;;;7.87;5.73;;;12.10;99.90;;;;;;5014537;28;20455;-73
2023/10/23 08:22:34;;;;;;;6.00;5.00;;;12.30;99.90;;;;;;4981916;28;20176;-72
2023/10/23 08:24:59;;;;;;;6.50;4.93;;;12.40;99.90;;;;;;5014209;28;20415;-73
2023/10/23 08:27:25;;;;;;;6.83;5.00;;;12.50;99.90;;;;;;5032332;28;20416;-73
2023/10/23 08:29:50;;;;;;;6.83;4.50;;;11.90;99.90;;;;;;5014079;28;20191;-73
2023/10/23 08:32:16;;;;;;;5.70;5.20;;;11.70;99.90;;;;;;5013825;28;20603;-73
2023/10/23 08:34:42;;;;;;;5.30;4.60;;;11.70;99.90;;;;;;5014002;28;20201;-74
2023/10/23 08:37:08;;;;;;;6.77;5.17;;;12.10;99.90;;;;;;5031896;28;20654;-72
2023/10/23 08:39:34;;;;;;;6.00;4.23;;;12.30;99.90;;;;;;5013840;28;20800;-73
2023/10/23 08:42:03;;;;;;;9.97;6.40;;;12.20;99.90;;;;;;5031450;28;20398;-71
2023/10/23 08:44:29;;;;;;;6.13;5.37;;;12.10;99.90;;;;;;5031865;28;20187;-73
2023/10/23 08:46:55;;;;;;;5.63;5.07;;;12.30;99.90;;;;;;5031659;28;20920;-73
2023/10/23 08:49:21;;;;;;;6.00;4.60;;;12.60;99.90;;;;;;5014286;28;20273;-73
2023/10/23 08:51:51;;;;;;;7.17;5.60;;;12.50;99.90;;;;;;5013916;28;20398;-73
2023/10/23 08:54:17;;;;;;;5.93;5.20;;;12.50;99.90;;;;;;5014203;28;20508;-73
2023/10/23 08:56:44;;;;;;;5.60;4.43;;;12.20;99.90;;;;;;5031611;28;20420;-73
2023/10/23 08:59:14;;;;;;;8.80;5.30;;;12.50;99.90;;;;;;5013808;28;20746;-73
2023/10/23 09:01:40;;;;;;;6.37;5.00;;;12.70;99.90;;;;;;5031609;28;20405;-74
2023/10/23 09:04:07;;;;;;;7.60;5.20;;;12.50;99.90;;;;;;5031613;28;20412;-73
2023/10/23 09:06:35;;;;;;;6.57;5.40;;;12.50;99.90;;;;;;5013871;28;20496;-73
2023/10/23 09:09:02;;;;;;;7.43;5.70;;;12.80;99.90;;;;;;5013547;28;20455;-72
2023/10/23 09:11:45;;;;;;;9.63;5.60;;;13.10;99.90;;;;;;5014104;28;20883;-73
2023/10/23 09:14:25;;;;;;;6.30;5.17;;;13.40;99.90;;;;;;5031649;28;20925;-73
2023/10/23 09:16:53;;;;;;;8.87;5.70;;;13.50;99.90;;;;;;5031554;28;20500;-73
2023/10/23 09:19:27;;;;;;;6.70;4.73;;;13.50;99.90;;;;;;5017385;28;20428;-73
2023/10/23 09:21:57;;;;;;;8.30;4.90;;;13.50;99.90;;;;;;5017563;28;20413;-73
2023/10/23 09:24:23;;;;;;;5.30;4.30;;;13.60;99.90;;;;;;5017549;28;20445;-73
2023/10/23 09:26:50;;;;;;;7.00;5.53;;;13.70;99.90;;;;;;5017487;28;20991;-72
2023/10/23 09:29:21;;;;;;;7.83;5.60;;;13.90;99.90;;;;;;5035203;28;20424;-73
2023/10/23 09:31:48;;;;;;;5.50;4.00;;;13.90;99.90;;;;;;5017497;28;20405;-73
2023/10/23 09:34:13;;;;;;;6.77;4.83;;;14.10;99.90;;;;;;5017549;28;20881;-73
2023/10/23 09:36:39;;;;;;;9.23;6.60;;;14.20;99.90;;;;;;5017560;28;20544;-73
2023/10/23 09:39:06;;;;;;;11.93;6.43;;;13.60;99.90;;;;;;5017126;28;20198;-74
2023/10/23 09:41:32;;;;;;;11.83;8.13;;;13.10;99.90;;;;;;5017700;28;20182;-73
2023/10/23 09:44:00;;;;;;;9.23;6.97;;;12.80;99.90;;;;;;5017349;28;20414;-73
2023/10/23 09:46:27;;;;;;;13.30;7.20;;;13.00;99.90;;;;;;5035196;28;20416;-73
2023/10/23 09:48:55;;;;;;;11.27;6.77;;;13.10;99.90;;;;;;5016805;28;20432;-73
2023/10/23 09:51:36;;;;;;;13.13;7.30;;;13.20;99.90;;;;;;5017094;28;20551;-73
2023/10/23 09:54:10;;;;;;;10.23;6.70;;;13.00;99.90;;;;;;5002875;28;20396;-73
2023/10/23 09:56:38;;;;;;;10.83;7.67;;;13.00;99.90;;;;;;5034849;28;20463;-73
2023/10/23 09:59:07;;;;;;;10.23;7.00;;;12.80;99.90;;;;;;5017140;28;20469;-74
2023/10/23 10:01:41;;;;;;;8.50;6.80;;;12.80;99.90;;;;;;5034772;28;20404;-74
2023/10/23 10:04:26;;;;;;;22.13;8.60;;;13.10;99.90;;;;;;5000555;28;20428;-73
2023/10/23 10:07:04;;;;;;;11.07;7.83;;;13.40;99.90;;;;;;5016739;28;20410;-73
2023/10/23 10:09:30;;;;;;;17.30;8.17;;;13.40;99.90;;;;;;5016456;28;20455;-73
2023/10/23 10:11:59;;;;;;;11.47;6.73;;;13.20;99.90;;;;;;5034394;28;20430;-73
2023/10/23 10:14:27;;;;;;;10.20;7.50;;;13.40;99.90;;;;;;5002341;28;20425;-73
2023/10/23 10:16:57;;;;;;;10.03;7.40;;;13.60;99.90;;;;;;5034192;28;20505;-73
2023/10/23 10:19:25;;;;;;;9.60;6.80;;;13.90;99.90;;;;;;5033761;28;20441;-74
2023/10/23 10:21:55;;;;;;;11.00;6.67;;;14.10;99.90;;;;;;5016345;28;20416;-74
2023/10/23 10:24:21;;;;;;;11.93;7.80;;;14.30;99.90;;;;;;5013990;28;20405;-74
2023/10/23 10:26:48;;;;;;;13.70;6.40;;;14.20;99.90;;;;;;5016674;28;20408;-73
2023/10/23 10:29:14;;;;;;;12.07;6.33;;;14.30;99.90;;;;;;5032703;28;20425;-74
2023/10/23 10:32:02;;;;;;;8.50;6.70;;;14.60;99.90;;;;;;5015953;28;20493;-73
2023/10/23 10:34:27;;;;;;;12.37;7.07;;;14.00;99.90;;;;;;5033073;28;20241;-75
2023/10/23 10:36:54;;;;;;;14.70;7.70;;;13.80;99.90;;;;;;5034503;28;20899;-74
2023/10/23 10:39:20;;;;;;;9.00;6.23;;;14.00;99.90;;;;;;4999845;28;20190;-73
2023/10/23 10:41:45;;;;;;;11.43;6.40;;;14.30;99.90;;;;;;5033795;28;20765;-72
2023/10/23 10:44:11;;;;;;;10.17;6.63;;;14.40;99.90;;;;;;5033878;28;20206;-73
2023/10/23 10:46:40;;;;;;;10.57;7.37;;;14.10;99.90;;;;;;5015864;28;20189;-73
2023/10/23 10:49:07;;;;;;;9.87;6.90;;;14.20;99.90;;;;;;4998556;28;20195;-72
2023/10/23 10:51:34;;;;;;;11.60;7.57;;;14.40;99.90;;;;;;5015899;28;20432;-73
2023/10/23 10:54:10;;;;;;;11.77;6.30;;;14.30;99.90;;;;;;5033514;28;20413;-73
2023/10/23 10:56:36;;;;;;;8.73;6.63;;;14.30;99.90;;;;;;5000551;28;20462;-72
2023/10/23 10:59:04;;;;;;;10.00;7.17;;;14.10;99.90;;;;;;5015762;28;20427;-72
2023/10/23 11:01:30;;;;;;;11.40;7.20;;;13.80;99.90;;;;;;5015966;28;20186;-74
2023/10/23 11:03:56;;;;;;;13.40;8.13;;;14.10;99.90;;;;;;5015880;28;20440;-72
2023/10/23 11:06:23;;;;;;;11.47;6.93;;;14.40;99.90;;;;;;5032872;28;20929;-73
2023/10/23 11:08:50;;;;;;;10.97;7.10;;;14.60;99.90;;;;;;5015459;28;20211;-72
2023/10/23 11:11:16;;;;;;;14.17;8.50;;;14.60;99.90;;;;;;4999944;28;20525;-73
2023/10/23 11:13:43;;;;;;;10.93;7.77;;;14.60;99.90;;;;;;5015659;28;20418;-73
2023/10/23 11:16:11;;;;;;;8.90;6.30;;;14.70;99.90;;;;;;4999695;28;20471;-73
2023/10/23 11:18:37;;;;;;;11.93;7.80;;;14.70;99.90;;;;;;5000213;28;20937;-73
2023/10/23 11:21:05;;;;;;;11.77;7.07;;;14.20;99.90;;;;;;5033322;28;20404;-74
2023/10/23 11:23:31;;;;;;;10.67;7.23;;;14.10;99.90;;;;;;5015522;28;20419;-73
2023/10/23 11:25:57;;;;;;;10.50;7.53;;;14.20;99.90;;;;;;5033312;28;20466;-73
2023/10/23 11:28:23;;;;;;;12.20;7.50;;;14.40;99.90;;;;;;5033474;28;20416;-75
2023/10/23 11:30:54;;;;;;;14.87;7.17;;;14.60;99.90;;;;;;4999153;28;20201;-73
2023/10/23 11:33:20;;;;;;;9.00;7.10;;;14.60;99.90;;;;;;5015315;28;20403;-73
2023/10/23 11:35:45;;;;;;;9.07;6.60;;;14.30;99.90;;;;;;5015077;28;20455;-74
2023/10/23 11:38:15;;;;;;;9.00;6.90;;;14.50;99.90;;;;;;5015377;28;20552;-74
2023/10/23 11:40:42;;;;;;;10.73;7.30;;;14.70;99.90;;;;;;5015033;28;20189;-73
2023/10/23 11:43:13;;;;;;;11.13;8.00;;;14.80;99.90;;;;;;5032956;28;20434;-73
2023/10/23 11:45:40;;;;;;;9.20;6.60;;;14.80;99.90;;;;;;5015818;28;20439;-73
2023/10/23 11:48:12;;;;;;;13.10;6.80;;;15.20;99.90;;;;;;5014550;28;20414;-73
2023/10/23 11:50:39;;;;;;;14.43;7.73;;;15.60;99.90;;;;;;5032653;28;21008;-73
2023/10/23 11:53:05;;;;;;;12.23;7.20;;;15.60;99.90;;;;;;5014870;28;20416;-74
2023/10/23 11:55:32;;;;;;;9.50;7.00;;;15.70;99.90;;;;;;4997596;28;20445;-73
2023/10/23 11:57:58;;;;;;;10.60;6.77;;;15.60;99.90;;;;;;4979199;28;20170;-74
2023/10/23 12:00:24;;;;;;;10.50;7.00;;;15.70;99.90;;;;;;5012759;28;20421;-74
2023/10/23 12:02:50;;;;;;;10.07;6.93;;;15.40;99.90;;;;;;5013201;28;20406;-74
2023/10/23 12:05:18;;;;;;;11.97;7.20;;;15.00;99.90;;;;;;5016489;28;20409;-73
2023/10/23 12:07:47;;;;;;;11.00;7.10;;;14.90;99.90;;;;;;4998849;28;20664;-72
2023/10/23 12:10:14;;;;;;;11.93;7.00;;;14.50;99.90;;;;;;5014507;28;20563;-73
2023/10/23 12:12:41;;;;;;;10.00;6.70;;;14.60;99.90;;;;;;5014669;28;20427;-73
2023/10/23 12:15:14;;;;;;;10.07;6.67;;;14.50;99.90;;;;;;5014305;28;20543;-74
2023/10/23 12:17:40;;;;;;;11.93;6.17;;;14.30;99.90;;;;;;5014092;28;20435;-74
2023/10/23 12:20:08;;;;;;;11.50;6.10;;;14.30;99.90;;;;;;5014458;28;20511;-73
2023/10/23 12:22:41;;;;;;;7.93;6.20;;;14.40;99.90;;;;;;5014515;28;20411;-73
2023/10/23 12:25:08;;;;;;;8.07;6.27;;;14.50;99.90;;;;;;5032620;28;20398;-72
2023/10/23 12:27:35;;;;;;;8.83;6.30;;;14.80;99.90;;;;;;4998402;28;20410;-73
2023/10/23 12:30:04;;;;;;;10.83;6.47;;;14.90;99.90;;;;;;5032058;28;20432;-73
2023/10/23 12:32:33;;;;;;;9.10;6.70;;;14.90;99.90;;;;;;5014703;28;20427;-73
2023/10/23 12:35:03;;;;;;;10.17;6.50;;;15.10;99.90;;;;;;5013751;28;20813;-73
2023/10/23 12:37:29;;;;;;;10.20;6.80;;;15.30;99.90;;;;;;4982759;28;20827;-74
2023/10/23 12:39:58;;;;;;;9.87;7.00;;;15.50;99.90;;;;;;5014537;28;20451;-73
2023/10/23 12:42:24;;;;;;;10.87;6.73;;;15.60;99.90;;;;;;5014180;28;20498;-73
2023/10/23 12:44:50;;;;;;;9.97;6.80;;;15.50;99.90;;;;;;5032242;28;20466;-74